createdAt,value
2017-08-30T00:00:21.136Z,79.90
2017-08-30T00:02:48.807Z,79.90
2017-08-30T00:05:16.553Z,80.00
2017-08-30T00:07:44.191Z,79.80
2017-08-30T00:10:11.808Z,79.60
2017-08-30T00:12:39.514Z,79.70
2017-08-30T00:15:07.166Z,79.70
2017-08-30T00:17:34.805Z,79.70
2017-08-30T00:20:02.496Z,80.00
2017-08-30T00:22:30.149Z,80.40
2017-08-30T00:27:57.359Z,80.70
2017-08-30T00:30:25.090Z,81.20
2017-08-30T00:32:52.906Z,81.20
2017-08-30T00:35:20.616Z,81.20
2017-08-30T00:37:48.370Z,81.30
2017-08-30T00:40:16.031Z,82.20
2017-08-30T00:42:43.675Z,81.30
2017-08-30T00:45:11.557Z,81.40
2017-08-30T00:47:39.228Z,81.50
2017-08-30T00:50:06.896Z,81.60
2017-08-30T00:52:34.628Z,81.50
2017-08-30T00:55:02.299Z,81.40
2017-08-30T00:57:29.991Z,81.30
2017-08-30T00:59:57.726Z,81.10
2017-08-30T01:02:25.395Z,81.30
2017-08-30T01:04:53.045Z,81.30
2017-08-30T01:07:20.794Z,81.10
2017-08-30T01:09:48.609Z,81.20
2017-08-30T01:12:16.274Z,81.40
2017-08-30T01:14:44.736Z,81.00
2017-08-30T01:17:12.406Z,81.00
2017-08-30T01:19:40.115Z,81.20
2017-08-30T01:22:07.840Z,81.40
2017-08-30T01:24:35.469Z,81.70
2017-08-30T01:27:03.175Z,82.00
2017-08-30T01:29:30.919Z,82.20
2017-08-30T01:31:58.745Z,82.20
2017-08-30T01:34:26.406Z,82.40
2017-08-30T01:36:54.231Z,82.50
2017-08-30T01:39:21.874Z,82.60
2017-08-30T01:41:49.558Z,82.70
2017-08-30T01:44:17.242Z,83.00
2017-08-30T01:46:44.932Z,82.90
2017-08-30T01:49:12.606Z,83.00
2017-08-30T01:51:40.380Z,83.10
2017-08-30T01:54:08.060Z,83.30
2017-08-30T01:56:35.758Z,83.40
2017-08-30T01:59:03.486Z,83.70
2017-08-30T02:01:31.156Z,83.80
2017-08-30T02:03:58.852Z,83.90
2017-08-30T02:06:26.648Z,84.00
2017-08-30T02:08:54.324Z,84.50
2017-08-30T02:11:21.975Z,84.50
2017-08-30T02:13:49.700Z,84.50
2017-08-30T02:16:17.330Z,84.40
2017-08-30T02:18:45.139Z,84.60
2017-08-30T02:21:12.836Z,85.40
2017-08-30T02:23:40.538Z,84.80
2017-08-30T02:26:08.209Z,84.80
2017-08-30T02:28:36.014Z,84.90
2017-08-30T02:31:03.767Z,85.20
2017-08-30T02:33:31.410Z,85.40
2017-08-30T02:35:59.275Z,85.50
2017-08-30T02:38:27.117Z,85.80
2017-08-30T02:40:54.776Z,85.80
2017-08-30T02:43:22.722Z,85.80
2017-08-30T02:45:50.398Z,86.00
2017-08-30T02:48:18.822Z,86.30
2017-08-30T02:50:46.629Z,86.30
2017-08-30T02:53:14.264Z,86.50
2017-08-30T02:55:41.968Z,86.60
2017-08-30T02:58:09.920Z,86.70
2017-08-30T03:00:37.766Z,87.10
2017-08-30T03:03:05.415Z,87.40
2017-08-30T03:05:33.095Z,87.50
2017-08-30T03:08:00.757Z,87.60
2017-08-30T03:10:28.405Z,87.60
2017-08-30T03:12:56.150Z,87.70
2017-08-30T03:15:23.815Z,87.90
2017-08-30T03:17:51.452Z,88.00
2017-08-30T03:20:19.169Z,88.20
2017-08-30T03:22:46.831Z,88.20
2017-08-30T03:25:14.526Z,88.00
2017-08-30T03:27:42.250Z,87.70
2017-08-30T03:30:09.959Z,87.40
2017-08-30T03:32:38.388Z,87.20
2017-08-30T03:35:06.321Z,87.20
2017-08-30T03:37:34.131Z,87.20
2017-08-30T03:40:01.871Z,87.30
2017-08-30T03:42:29.602Z,87.20
2017-08-30T03:44:57.243Z,87.20
2017-08-30T03:47:24.888Z,87.30
2017-08-30T03:49:52.590Z,86.90
2017-08-30T03:52:20.254Z,86.60
2017-08-30T03:54:47.915Z,85.80
2017-08-30T03:57:15.670Z,85.60
2017-08-30T03:59:43.508Z,85.50
2017-08-30T04:02:11.174Z,85.60
2017-08-30T04:04:39.337Z,85.80
2017-08-30T04:07:07.570Z,86.00
2017-08-30T04:09:35.758Z,85.80
2017-08-30T04:12:03.504Z,85.50
2017-08-30T04:14:31.152Z,85.30
2017-08-30T04:16:58.819Z,85.10
2017-08-30T04:19:26.517Z,84.90
2017-08-30T04:21:54.192Z,84.70
2017-08-30T04:24:21.838Z,85.00
2017-08-30T04:26:49.674Z,85.10
2017-08-30T04:29:17.331Z,85.00
2017-08-30T04:31:46.353Z,84.50
2017-08-30T04:34:14.191Z,84.50
2017-08-30T04:36:41.833Z,84.50
2017-08-30T04:39:09.538Z,84.70
2017-08-30T04:41:37.318Z,84.60
2017-08-30T04:44:04.990Z,84.40
2017-08-30T04:46:32.649Z,84.20
2017-08-30T04:49:00.398Z,84.10
2017-08-30T04:51:28.057Z,84.10
2017-08-30T04:53:55.816Z,84.10
2017-08-30T04:56:23.665Z,84.10
2017-08-30T04:58:51.308Z,84.00
2017-08-30T05:01:18.997Z,83.90
2017-08-30T05:03:46.753Z,84.10
2017-08-30T05:06:14.389Z,84.20
2017-08-30T05:08:42.195Z,84.10
2017-08-30T05:11:10.153Z,84.30
2017-08-30T05:13:37.812Z,84.50
2017-08-30T05:16:05.472Z,84.70
2017-08-30T05:18:34.059Z,84.50
2017-08-30T05:21:01.724Z,84.50
2017-08-30T05:23:30.121Z,84.50
2017-08-30T05:25:57.798Z,84.40
2017-08-30T05:28:25.460Z,84.10
2017-08-30T05:30:53.107Z,83.80
2017-08-30T05:33:20.836Z,82.50
2017-08-30T05:35:48.542Z,78.80
2017-08-30T05:38:16.245Z,75.40
2017-08-30T05:40:44.010Z,73.10
2017-08-30T05:43:11.664Z,70.70
2017-08-30T05:45:39.284Z,69.00
2017-08-30T05:48:07.002Z,68.20
2017-08-30T05:50:34.637Z,67.80
2017-08-30T05:53:02.307Z,65.60
2017-08-30T05:55:30.111Z,64.60
2017-08-30T05:57:57.809Z,65.10
2017-08-30T06:00:25.465Z,64.00
2017-08-30T06:02:53.182Z,61.50
2017-08-30T06:05:20.823Z,59.50
2017-08-30T06:07:48.473Z,59.60
2017-08-30T06:10:16.916Z,58.30
2017-08-30T06:12:44.587Z,58.30
2017-08-30T06:15:13.005Z,59.00
2017-08-30T06:17:40.779Z,58.90
2017-08-30T06:20:08.454Z,56.70
2017-08-30T06:22:36.873Z,56.10
2017-08-30T06:25:04.588Z,56.10
2017-08-30T06:27:32.223Z,56.40
2017-08-30T06:29:59.888Z,57.30
2017-08-30T06:32:27.591Z,58.50
2017-08-30T06:34:55.270Z,60.70
2017-08-30T06:37:22.933Z,63.60
2017-08-30T06:39:50.647Z,63.30
2017-08-30T06:42:18.319Z,64.20
2017-08-30T06:44:45.982Z,64.50
2017-08-30T06:47:13.718Z,65.60
2017-08-30T06:49:41.449Z,66.20
2017-08-30T06:52:09.111Z,66.80
2017-08-30T06:54:37.585Z,68.30
2017-08-30T06:57:05.256Z,68.20
2017-08-30T06:59:32.884Z,69.30
2017-08-30T07:02:00.771Z,70.10
2017-08-30T07:04:28.458Z,69.40
2017-08-30T07:06:56.079Z,69.00
2017-08-30T07:09:23.820Z,68.30
2017-08-30T07:11:51.467Z,68.40
2017-08-30T07:14:19.910Z,68.40
2017-08-30T07:16:47.639Z,68.40
2017-08-30T07:19:15.330Z,68.40
2017-08-30T07:21:43.736Z,68.50
2017-08-30T07:24:11.457Z,68.50
2017-08-30T07:26:39.179Z,67.80
2017-08-30T07:29:07.586Z,67.60
2017-08-30T07:31:35.322Z,67.60
2017-08-30T07:34:02.988Z,68.00
2017-08-30T07:36:30.648Z,67.40
2017-08-30T07:38:58.457Z,66.70
2017-08-30T07:41:26.126Z,65.20
2017-08-30T07:43:53.771Z,65.50
2017-08-30T07:46:21.498Z,64.60
2017-08-30T07:48:49.194Z,63.00
2017-08-30T07:51:16.840Z,61.70
2017-08-30T07:53:44.567Z,61.10
2017-08-30T07:56:12.213Z,58.80
2017-08-30T07:58:39.873Z,58.60
2017-08-30T08:01:07.621Z,57.50
2017-08-30T08:03:35.267Z,56.80
2017-08-30T08:06:02.921Z,57.40
2017-08-30T08:08:30.672Z,57.00
2017-08-30T08:10:58.336Z,57.10
2017-08-30T08:13:26.031Z,56.80
2017-08-30T08:15:53.730Z,56.70
2017-08-30T08:18:21.396Z,56.10
2017-08-30T08:20:49.060Z,56.40
2017-08-30T08:23:16.805Z,55.70
2017-08-30T08:25:44.478Z,55.10
2017-08-30T08:28:12.141Z,54.00
2017-08-30T08:30:39.955Z,54.70
2017-08-30T08:33:07.603Z,54.10
2017-08-30T08:35:35.235Z,54.70
2017-08-30T08:38:02.932Z,54.70
2017-08-30T08:40:30.615Z,54.90
2017-08-30T08:42:58.247Z,54.30
2017-08-30T08:45:25.968Z,53.50
2017-08-30T08:47:53.633Z,53.00
2017-08-30T08:50:21.284Z,52.60
2017-08-30T08:52:48.984Z,52.10
2017-08-30T08:55:16.651Z,51.40
2017-08-30T08:57:44.301Z,51.20
2017-08-30T09:00:12.013Z,51.30
2017-08-30T09:02:39.671Z,51.30
2017-08-30T09:05:07.327Z,51.30
2017-08-30T09:07:35.142Z,50.90
2017-08-30T09:10:02.765Z,50.90
2017-08-30T09:12:30.416Z,51.90
2017-08-30T09:14:58.135Z,52.40
2017-08-30T09:17:25.790Z,52.10
2017-08-30T09:19:53.486Z,51.60
2017-08-30T09:22:21.384Z,50.70
2017-08-30T09:24:49.792Z,51.20
2017-08-30T09:27:17.472Z,51.10
2017-08-30T09:29:45.317Z,51.80
2017-08-30T09:32:13.007Z,52.50
2017-08-30T09:34:40.665Z,51.60
2017-08-30T09:37:08.393Z,51.90
2017-08-30T09:39:36.833Z,50.70
2017-08-30T09:42:04.675Z,50.70
2017-08-30T09:44:32.363Z,50.30
2017-08-30T09:47:00.882Z,49.40
2017-08-30T09:49:28.536Z,49.40
2017-08-30T09:51:56.250Z,49.70
2017-08-30T09:54:23.917Z,48.90
2017-08-30T09:56:51.632Z,49.50
2017-08-30T09:59:19.330Z,49.10
2017-08-30T10:01:46.973Z,48.50
2017-08-30T10:04:14.654Z,48.40
2017-08-30T10:06:42.587Z,48.30
2017-08-30T10:09:10.226Z,47.30
2017-08-30T10:11:37.876Z,47.90
2017-08-30T10:14:05.555Z,47.50
2017-08-30T10:16:33.481Z,46.90
2017-08-30T10:19:01.942Z,46.90
2017-08-30T10:21:29.645Z,46.90
2017-08-30T10:23:58.108Z,46.30
2017-08-30T10:26:25.788Z,46.60
2017-08-30T10:28:53.585Z,47.20
2017-08-30T10:31:21.234Z,46.90
2017-08-30T10:33:48.903Z,48.40
2017-08-30T10:36:16.775Z,46.20
2017-08-30T10:38:44.528Z,46.90
2017-08-30T10:41:12.260Z,47.70
2017-08-30T10:43:40.210Z,48.10
2017-08-30T10:46:07.840Z,47.90
2017-08-30T10:48:35.501Z,47.60
2017-08-30T10:51:03.355Z,47.30
2017-08-30T10:53:30.970Z,47.80
2017-08-30T10:55:58.683Z,47.40
2017-08-30T10:58:26.588Z,46.70
2017-08-30T11:00:54.253Z,46.60
2017-08-30T11:03:22.669Z,46.30
2017-08-30T11:05:50.411Z,46.30
2017-08-30T11:08:18.053Z,47.00
2017-08-30T11:10:45.690Z,47.90
2017-08-30T11:13:13.484Z,48.80
2017-08-30T11:15:41.122Z,48.70
2017-08-30T11:18:08.776Z,49.00
2017-08-30T11:20:36.528Z,49.30
2017-08-30T11:23:04.215Z,48.90
2017-08-30T11:25:31.922Z,48.60
2017-08-30T11:27:59.676Z,48.30
2017-08-30T11:30:27.535Z,48.50
2017-08-30T11:32:55.203Z,49.20
2017-08-30T11:35:22.949Z,49.20
2017-08-30T11:37:50.612Z,49.20
2017-08-30T11:40:18.265Z,50.00
2017-08-30T11:42:46.011Z,49.70
2017-08-30T11:45:13.639Z,51.50
2017-08-30T11:47:41.320Z,52.20
2017-08-30T11:50:09.129Z,52.10
2017-08-30T11:52:36.780Z,52.10
2017-08-30T11:55:04.501Z,53.10
2017-08-30T11:57:32.243Z,54.70
2017-08-30T11:59:59.917Z,54.40
2017-08-30T12:02:27.574Z,53.90
2017-08-30T12:04:55.440Z,53.60
2017-08-30T12:07:23.108Z,52.50
2017-08-30T12:09:50.792Z,52.60
2017-08-30T12:12:18.503Z,51.40
2017-08-30T12:14:46.160Z,52.10
2017-08-30T12:17:13.805Z,51.50
2017-08-30T12:19:42.290Z,53.20
2017-08-30T12:22:09.970Z,53.30
2017-08-30T12:24:37.631Z,54.30
2017-08-30T12:27:05.367Z,54.40
2017-08-30T12:29:33.096Z,55.10
2017-08-30T12:32:00.746Z,54.90
2017-08-30T12:34:28.443Z,55.40
2017-08-30T12:37:01.866Z,55.80
2017-08-30T12:39:35.370Z,56.30
2017-08-30T12:42:03.040Z,57.00
2017-08-30T12:44:30.704Z,57.60
2017-08-30T12:46:58.647Z,58.50
2017-08-30T12:49:26.291Z,58.60
2017-08-30T12:51:53.962Z,58.80
2017-08-30T12:54:21.706Z,59.00
2017-08-30T12:56:49.350Z,59.00
2017-08-30T12:59:17.100Z,59.10
2017-08-30T13:01:45.576Z,60.00
2017-08-30T13:04:13.305Z,60.00
2017-08-30T13:06:40.926Z,61.30
2017-08-30T13:09:08.807Z,61.90
2017-08-30T13:11:36.462Z,62.70
2017-08-30T13:14:04.107Z,63.20
2017-08-30T13:16:31.873Z,63.40
2017-08-30T13:18:59.496Z,63.20
2017-08-30T13:21:27.162Z,63.40
2017-08-30T13:23:55.114Z,62.90
2017-08-30T13:26:23.578Z,63.20
2017-08-30T13:28:51.350Z,63.10
2017-08-30T13:31:19.095Z,62.90
2017-08-30T13:33:46.772Z,62.90
2017-08-30T13:36:14.401Z,62.20
2017-08-30T13:38:42.109Z,62.30
2017-08-30T13:41:10.661Z,63.50
2017-08-30T13:43:38.317Z,62.80
2017-08-30T13:46:06.043Z,63.30
2017-08-30T13:48:33.724Z,63.40
2017-08-30T13:51:01.356Z,63.80
2017-08-30T13:53:29.182Z,64.20
2017-08-30T13:55:56.854Z,64.60
2017-08-30T13:58:24.491Z,64.30
2017-08-30T14:00:52.218Z,62.70
2017-08-30T14:03:19.854Z,62.20
2017-08-30T14:05:47.504Z,61.40
2017-08-30T14:08:15.378Z,61.20
2017-08-30T14:10:43.056Z,60.30
2017-08-30T14:13:10.689Z,60.80
2017-08-30T14:15:38.645Z,60.00
2017-08-30T14:18:06.316Z,59.70
2017-08-30T14:20:34.001Z,60.20
2017-08-30T14:23:01.859Z,59.60
2017-08-30T14:25:29.604Z,60.70
2017-08-30T14:27:58.002Z,61.00
2017-08-30T14:30:26.465Z,60.60
2017-08-30T14:32:54.149Z,60.50
2017-08-30T14:35:21.801Z,60.40
2017-08-30T14:37:49.602Z,60.30
2017-08-30T14:40:17.362Z,59.70
2017-08-30T14:42:45.236Z,60.10
2017-08-30T14:45:13.241Z,60.00
2017-08-30T14:47:40.981Z,59.80
2017-08-30T14:50:09.598Z,58.90
2017-08-30T14:52:37.421Z,58.90
2017-08-30T14:55:05.845Z,58.00
2017-08-30T14:57:33.612Z,57.90
2017-08-30T15:00:01.373Z,58.00
2017-08-30T15:02:29.108Z,58.10
2017-08-30T15:04:56.854Z,59.10
2017-08-30T15:07:24.692Z,58.30
2017-08-30T15:09:52.496Z,58.20
2017-08-30T15:12:20.231Z,58.10
2017-08-30T15:14:48.199Z,58.50
2017-08-30T15:17:15.930Z,58.80
2017-08-30T15:19:43.606Z,58.50
2017-08-30T15:22:11.484Z,58.80
2017-08-30T15:24:39.145Z,59.20
2017-08-30T15:27:06.793Z,59.30
2017-08-30T15:29:34.603Z,59.50
2017-08-30T15:32:02.252Z,59.80
2017-08-30T15:34:29.915Z,60.00
2017-08-30T15:36:57.774Z,59.80
2017-08-30T15:39:25.458Z,59.30
2017-08-30T15:41:53.917Z,59.70
2017-08-30T15:44:21.709Z,59.70
2017-08-30T15:46:49.359Z,59.60
2017-08-30T15:49:17.015Z,60.20
2017-08-30T15:51:44.822Z,61.30
2017-08-30T15:54:12.627Z,61.00
2017-08-30T15:56:40.313Z,61.70
2017-08-30T15:59:08.060Z,62.90
2017-08-30T16:01:35.733Z,62.80
2017-08-30T16:04:03.418Z,63.70
2017-08-30T16:06:31.097Z,63.90
2017-08-30T16:08:58.850Z,65.00
2017-08-30T16:11:26.500Z,65.10
2017-08-30T16:13:54.212Z,65.60
2017-08-30T16:16:21.887Z,66.10
2017-08-30T16:18:49.590Z,66.70
2017-08-30T16:21:17.325Z,66.50
2017-08-30T16:23:44.971Z,66.40
2017-08-30T16:26:12.601Z,66.40
2017-08-30T16:28:40.292Z,66.40
2017-08-30T16:31:07.990Z,66.60
2017-08-30T16:33:35.774Z,66.80
2017-08-30T16:36:03.739Z,67.10
2017-08-30T16:38:32.156Z,67.30
2017-08-30T16:40:59.815Z,66.80
2017-08-30T16:43:27.521Z,67.20
2017-08-30T16:45:55.158Z,67.40
2017-08-30T16:48:23.645Z,68.20
2017-08-30T16:50:51.355Z,68.00
2017-08-30T16:53:19.013Z,68.00
2017-08-30T16:55:46.671Z,68.10
2017-08-30T16:58:14.441Z,68.30
2017-08-30T17:00:42.136Z,68.60
2017-08-30T17:03:09.780Z,68.40
2017-08-30T17:05:37.555Z,68.80
2017-08-30T17:08:05.465Z,69.20
2017-08-30T17:10:33.158Z,69.40
2017-08-30T17:13:02.128Z,69.70
2017-08-30T17:15:29.802Z,70.10
2017-08-30T17:17:57.555Z,70.00
2017-08-30T17:20:25.427Z,70.90
2017-08-30T17:22:53.105Z,70.30
2017-08-30T17:25:20.758Z,70.60
2017-08-30T17:27:48.592Z,70.70
2017-08-30T17:30:16.225Z,71.10
2017-08-30T17:32:43.971Z,71.10
2017-08-30T17:35:11.691Z,71.80
2017-08-30T17:37:39.351Z,72.20
2017-08-30T17:40:07.024Z,72.50
2017-08-30T17:42:34.772Z,72.70
2017-08-30T17:45:02.447Z,72.90
2017-08-30T17:47:30.109Z,73.40
2017-08-30T17:49:57.801Z,73.60
2017-08-30T17:52:25.468Z,73.80
2017-08-30T17:54:53.157Z,73.40
2017-08-30T17:57:20.878Z,74.00
2017-08-30T17:59:48.573Z,74.50
2017-08-30T18:02:16.995Z,74.80
2017-08-30T18:04:44.742Z,74.70
2017-08-30T18:07:12.445Z,75.00
2017-08-30T18:09:40.087Z,74.90
2017-08-30T18:12:07.814Z,75.50
2017-08-30T18:14:35.475Z,75.70
2017-08-30T18:17:03.388Z,75.90
2017-08-30T18:19:31.230Z,76.30
2017-08-30T18:21:58.892Z,76.50
2017-08-30T18:24:26.577Z,76.70
2017-08-30T18:26:54.567Z,76.80
2017-08-30T18:29:22.236Z,77.00
2017-08-30T18:31:49.922Z,77.40
2017-08-30T18:34:18.002Z,77.80
2017-08-30T18:36:45.901Z,77.90
2017-08-30T18:39:13.692Z,78.00
2017-08-30T18:41:41.550Z,78.20
2017-08-30T18:44:09.892Z,78.20
2017-08-30T18:46:37.951Z,78.40
2017-08-30T18:49:06.102Z,78.20
2017-08-30T18:51:33.829Z,78.60
2017-08-30T18:54:01.559Z,78.70
2017-08-30T18:56:29.397Z,78.90
2017-08-30T18:58:58.021Z,79.00
2017-08-30T19:01:25.766Z,80.10
2017-08-30T19:03:53.979Z,79.50
2017-08-30T19:06:22.787Z,79.80
2017-08-30T19:08:50.549Z,80.00
2017-08-30T19:11:18.721Z,80.00
2017-08-30T19:13:46.661Z,80.30
2017-08-30T19:16:14.353Z,80.50
2017-08-30T19:18:42.197Z,80.40
2017-08-30T19:21:10.335Z,80.00
2017-08-30T19:23:42.530Z,79.70
2017-08-30T19:26:10.175Z,79.90
2017-08-30T19:28:37.891Z,79.90
2017-08-30T19:31:06.026Z,80.00
2017-08-30T19:33:33.785Z,79.80
2017-08-30T19:36:01.791Z,79.50
2017-08-30T19:38:30.527Z,79.30
2017-08-30T19:40:58.275Z,79.20
2017-08-30T19:43:26.052Z,79.10
2017-08-30T19:45:54.135Z,79.30
2017-08-30T19:48:22.379Z,79.70
2017-08-30T19:50:50.079Z,79.60
2017-08-30T19:53:18.319Z,79.50
2017-08-30T19:55:46.051Z,79.40
2017-08-30T19:58:13.845Z,79.90
2017-08-30T20:00:41.681Z,78.90
2017-08-30T20:03:09.359Z,78.90
2017-08-30T20:05:37.056Z,79.30
2017-08-30T20:08:04.689Z,79.20
2017-08-30T20:10:33.098Z,79.20
2017-08-30T20:13:00.745Z,79.00
2017-08-30T20:15:28.546Z,77.30
2017-08-30T20:17:56.427Z,78.10
2017-08-30T20:20:24.108Z,78.50
2017-08-30T20:22:51.843Z,78.60
2017-08-30T20:25:19.591Z,78.20
2017-08-30T20:27:47.291Z,78.30
2017-08-30T20:30:15.170Z,78.20
2017-08-30T20:32:43.677Z,78.30
2017-08-30T20:35:11.320Z,78.30
2017-08-30T20:37:39.172Z,78.90
2017-08-30T20:40:06.886Z,79.40
2017-08-30T20:42:35.369Z,81.00
2017-08-30T20:45:03.154Z,81.00
2017-08-30T20:47:30.789Z,81.40
2017-08-30T20:49:58.474Z,82.00
2017-08-30T20:52:26.199Z,82.40
2017-08-30T20:54:53.865Z,83.60
2017-08-30T20:57:21.539Z,84.20
2017-08-30T20:59:49.246Z,84.60
2017-08-30T21:02:16.935Z,85.50
2017-08-30T21:04:44.612Z,86.50
2017-08-30T21:07:12.344Z,87.20
2017-08-30T21:09:40.020Z,87.40
2017-08-30T21:12:07.660Z,88.50
2017-08-30T21:14:35.377Z,88.90
2017-08-30T21:17:03.008Z,89.40
2017-08-30T21:19:30.678Z,88.90
2017-08-30T21:21:58.392Z,88.70
2017-08-30T21:24:26.818Z,89.10
2017-08-30T21:26:54.492Z,89.10
2017-08-30T21:29:22.952Z,89.20
2017-08-30T21:31:50.600Z,89.30
2017-08-30T21:34:18.254Z,89.20
2017-08-30T21:36:45.984Z,89.20
2017-08-30T21:39:13.640Z,89.40
2017-08-30T21:41:41.316Z,89.20
2017-08-30T21:44:09.148Z,89.00
2017-08-30T21:46:36.880Z,89.50
2017-08-30T21:49:04.543Z,89.70
2017-08-30T21:51:32.248Z,89.30
2017-08-30T21:53:59.894Z,89.20
2017-08-30T21:56:27.534Z,89.20
2017-08-30T21:58:55.248Z,89.60
2017-08-30T22:01:22.904Z,89.80
2017-08-30T22:03:50.577Z,90.00
2017-08-30T22:06:18.308Z,90.00
2017-08-30T22:08:45.966Z,90.10
2017-08-30T22:11:13.627Z,90.10
2017-08-30T22:13:41.330Z,90.20
2017-08-30T22:16:09.009Z,90.40
2017-08-30T22:18:36.665Z,90.40
2017-08-30T22:21:04.467Z,90.50
2017-08-30T22:23:32.135Z,90.60
2017-08-30T22:25:59.847Z,90.80
2017-08-30T22:28:27.808Z,91.00
2017-08-30T22:30:56.213Z,91.00
2017-08-30T22:33:23.856Z,91.00
2017-08-30T22:35:51.579Z,91.00
2017-08-30T22:38:19.271Z,91.00
2017-08-30T22:40:47.027Z,91.00
2017-08-30T22:43:14.837Z,91.00
2017-08-30T22:45:42.503Z,91.10
2017-08-30T22:48:10.154Z,91.20
2017-08-30T22:50:38.639Z,91.30
2017-08-30T22:53:06.298Z,91.30
2017-08-30T22:55:34.030Z,91.20
2017-08-30T22:58:01.749Z,90.90
2017-08-30T23:00:29.396Z,91.20
2017-08-30T23:02:57.046Z,91.20
2017-08-30T23:05:24.780Z,91.10
2017-08-30T23:07:52.445Z,91.00
2017-08-30T23:10:20.087Z,91.00
2017-08-30T23:12:47.850Z,90.80
2017-08-30T23:15:15.513Z,90.60
2017-08-30T23:17:43.188Z,90.50
2017-08-30T23:20:11.030Z,90.50
2017-08-30T23:22:38.692Z,90.70
2017-08-30T23:25:06.376Z,90.60
2017-08-30T23:27:34.071Z,90.60
2017-08-30T23:30:01.728Z,90.70
2017-08-30T23:32:29.355Z,90.70
2017-08-30T23:34:57.833Z,90.80
2017-08-30T23:37:25.493Z,90.80
2017-08-30T23:39:53.176Z,90.80
2017-08-30T23:42:20.897Z,90.70
2017-08-30T23:44:49.339Z,91.40
2017-08-30T23:47:16.983Z,90.80
2017-08-30T23:49:44.681Z,90.80
2017-08-30T23:52:12.346Z,90.80
2017-08-30T23:54:39.986Z,90.80
2017-08-30T23:57:07.752Z,90.90
2017-08-30T23:59:36.190Z,91.10
